createdAt,value
2022-09-17T00:00:11.835Z,67.54
2022-09-17T00:02:43.722Z,67.49
2022-09-17T00:05:14.053Z,67.21
2022-09-17T00:07:42.104Z,67.53
2022-09-17T00:10:12.275Z,67.42
2022-09-17T00:12:43.370Z,67.11
2022-09-17T00:15:14.336Z,66.72
2022-09-17T00:17:48.761Z,66.89
2022-09-17T00:20:28.412Z,66.95
2022-09-17T00:23:07.103Z,66.45
2022-09-17T00:25:47.106Z,66.61
2022-09-17T00:28:19.440Z,67.04
2022-09-17T00:31:01.031Z,66.92
2022-09-17T00:33:37.324Z,66.82
2022-09-17T00:36:11.217Z,66.94
2022-09-17T00:38:48.793Z,66.90
2022-09-17T00:41:26.491Z,67.35
2022-09-17T00:44:09.504Z,67.31
2022-09-17T00:46:45.998Z,66.94
2022-09-17T00:49:22.485Z,67.11
2022-09-17T00:52:01.830Z,67.00
2022-09-17T00:54:45.451Z,66.98
2022-09-17T00:57:24.955Z,66.97
2022-09-17T01:00:02.540Z,67.22
2022-09-17T01:02:37.880Z,67.18
2022-09-17T01:11:57.955Z,67.19
2022-09-17T01:14:48.879Z,67.58
2022-09-17T01:17:29.028Z,67.24
2022-09-17T01:20:38.346Z,67.08
2022-09-17T01:23:34.005Z,67.46
2022-09-17T01:26:30.150Z,67.52
2022-09-17T01:29:09.096Z,67.43
2022-09-17T01:31:45.757Z,67.57
2022-09-17T01:34:24.582Z,67.47
2022-09-17T01:37:04.626Z,67.80
2022-09-17T01:39:45.370Z,68.27
2022-09-17T01:42:29.140Z,68.09
2022-09-17T01:45:04.645Z,67.91
2022-09-17T01:47:38.991Z,68.02
2022-09-17T01:50:13.605Z,68.14
2022-09-17T01:52:45.415Z,68.17
2022-09-17T01:55:17.076Z,68.47
2022-09-17T01:57:51.507Z,68.47
2022-09-17T02:00:20.654Z,68.64
2022-09-17T02:02:55.859Z,68.34
2022-09-17T02:05:29.981Z,68.51
2022-09-17T02:08:04.855Z,68.73
2022-09-17T02:10:37.801Z,68.66
2022-09-17T02:13:10.763Z,68.37
2022-09-17T02:15:45.252Z,68.77
2022-09-17T02:18:23.537Z,68.89
2022-09-17T02:20:56.772Z,69.07
2022-09-17T02:23:31.200Z,69.27
2022-09-17T02:26:06.748Z,69.50
2022-09-17T02:28:42.571Z,69.53
2022-09-17T02:31:11.736Z,69.80
2022-09-17T02:33:44.249Z,69.87
2022-09-17T02:36:13.572Z,69.98
2022-09-17T02:38:45.189Z,69.90
2022-09-17T02:41:18.504Z,69.96
2022-09-17T02:43:56.339Z,70.08
2022-09-17T02:46:46.153Z,70.02
2022-09-17T02:49:34.237Z,69.94
2022-09-17T02:52:11.379Z,70.12
2022-09-17T02:54:47.718Z,69.93
2022-09-17T02:57:23.608Z,70.19
2022-09-17T02:59:57.912Z,70.06
2022-09-17T03:02:33.698Z,70.32
2022-09-17T03:05:04.917Z,70.06
2022-09-17T03:07:34.216Z,69.98
2022-09-17T03:10:02.269Z,70.05
2022-09-17T03:12:30.907Z,69.92
2022-09-17T03:14:59.073Z,70.16
2022-09-17T03:17:27.301Z,70.10
2022-09-17T03:19:55.567Z,70.20
2022-09-17T03:22:25.268Z,70.41
2022-09-17T03:24:53.660Z,70.02
2022-09-17T03:27:21.727Z,69.90
2022-09-17T03:29:50.301Z,70.03
2022-09-17T03:32:18.431Z,69.99
2022-09-17T03:34:47.234Z,69.87
2022-09-17T03:37:15.693Z,69.82
2022-09-17T03:39:45.644Z,69.71
2022-09-17T03:42:14.004Z,69.86
2022-09-17T03:44:45.297Z,69.77
2022-09-17T03:47:16.846Z,69.32
2022-09-17T03:49:45.222Z,69.49
2022-09-17T03:52:13.329Z,69.56
2022-09-17T03:54:41.869Z,69.32
2022-09-17T03:57:11.558Z,69.25
2022-09-17T03:59:39.818Z,69.72
2022-09-17T04:02:08.082Z,69.93
2022-09-17T04:04:36.854Z,69.75
2022-09-17T04:07:06.842Z,69.95
2022-09-17T04:09:35.633Z,69.94
2022-09-17T04:12:04.176Z,70.05
2022-09-17T04:14:33.777Z,70.58
2022-09-17T04:17:02.186Z,70.42
2022-09-17T04:19:30.589Z,70.71
2022-09-17T04:21:58.640Z,70.75
2022-09-17T04:24:26.982Z,70.61
2022-09-17T04:26:55.218Z,70.19
2022-09-17T04:29:25.682Z,70.38
2022-09-17T04:31:55.203Z,70.31
2022-09-17T04:34:23.837Z,70.74
2022-09-17T04:36:52.311Z,70.34
2022-09-17T04:39:20.510Z,70.09
2022-09-17T04:41:48.598Z,70.45
2022-09-17T04:44:16.643Z,70.30
2022-09-17T04:46:45.269Z,70.31
2022-09-17T04:49:15.766Z,70.66
2022-09-17T04:51:45.394Z,70.78
2022-09-17T04:54:14.742Z,70.52
2022-09-17T04:56:43.138Z,71.28
2022-09-17T04:59:11.703Z,71.04
2022-09-17T05:01:40.200Z,71.05
2022-09-17T05:04:09.205Z,70.91
2022-09-17T05:06:38.924Z,70.82
2022-09-17T05:09:07.706Z,70.81
2022-09-17T05:11:35.980Z,71.05
2022-09-17T05:14:04.453Z,71.24
2022-09-17T05:16:33.304Z,71.43
2022-09-17T05:19:02.249Z,71.15
2022-09-17T05:21:30.542Z,70.97
2022-09-17T05:24:01.659Z,70.99
2022-09-17T05:26:30.180Z,70.91
2022-09-17T05:28:58.517Z,70.65
2022-09-17T05:31:26.782Z,70.77
2022-09-17T05:33:55.133Z,70.72
2022-09-17T05:36:23.311Z,70.70
2022-09-17T05:38:56.388Z,70.72
2022-09-17T05:41:26.440Z,70.51
2022-09-17T05:43:54.874Z,70.65
2022-09-17T05:46:23.305Z,70.40
2022-09-17T05:48:51.898Z,70.70
2022-09-17T05:51:21.172Z,70.31
2022-09-17T05:53:50.355Z,70.38
2022-09-17T05:56:19.486Z,70.66
2022-09-17T05:58:49.450Z,70.14
2022-09-17T06:01:17.844Z,70.20
2022-09-17T06:03:46.234Z,70.02
2022-09-17T06:06:14.735Z,70.06
2022-09-17T06:08:43.403Z,69.92
2022-09-17T06:11:11.964Z,69.62
2022-09-17T06:13:40.146Z,69.65
2022-09-17T06:16:09.860Z,69.32
2022-09-17T06:18:38.259Z,69.22
2022-09-17T06:21:07.192Z,69.28
2022-09-17T06:23:37.430Z,69.04
2022-09-17T06:26:07.429Z,68.77
2022-09-17T06:28:41.301Z,68.19
2022-09-17T06:31:13.864Z,67.98
2022-09-17T06:33:42.106Z,68.28
2022-09-17T06:36:14.684Z,67.43
2022-09-17T06:38:44.647Z,67.52
2022-09-17T06:41:14.990Z,66.28
2022-09-17T06:43:43.012Z,66.42
2022-09-17T06:46:12.816Z,62.48
2022-09-17T06:48:40.923Z,60.43
2022-09-17T06:51:11.717Z,57.33
2022-09-17T06:53:40.950Z,55.80
2022-09-17T06:56:10.686Z,53.11
2022-09-17T06:58:41.738Z,52.74
2022-09-17T07:01:13.542Z,50.35
2022-09-17T07:03:45.206Z,48.15
2022-09-17T07:06:14.471Z,47.30
2022-09-17T07:11:53.629Z,48.35
2022-09-17T07:14:24.879Z,50.58
2022-09-17T07:16:55.804Z,50.96
2022-09-17T07:22:27.303Z,52.83
2022-09-17T07:24:55.581Z,54.34
2022-09-17T07:27:23.698Z,56.60
2022-09-17T07:29:51.961Z,57.55
2022-09-17T07:32:21.398Z,58.27
2022-09-17T07:34:50.441Z,58.76
2022-09-17T07:37:20.460Z,59.65
2022-09-17T07:39:48.530Z,59.87
2022-09-17T07:42:16.956Z,59.80
2022-09-17T07:44:46.692Z,59.56
2022-09-17T07:53:35.655Z,58.20
2022-09-17T07:56:05.163Z,57.65
2022-09-17T07:58:37.021Z,57.42
2022-09-17T08:01:07.070Z,57.25
2022-09-17T08:03:35.359Z,56.73
2022-09-17T08:06:05.282Z,56.24
2022-09-17T08:08:37.227Z,56.27
2022-09-17T08:11:09.023Z,55.63
2022-09-17T08:13:37.441Z,56.73
2022-09-17T08:16:07.751Z,56.53
2022-09-17T08:18:37.257Z,56.71
2022-09-17T08:24:25.645Z,56.92
2022-09-17T08:26:53.725Z,56.32
2022-09-17T08:29:21.946Z,53.04
2022-09-17T08:31:50.887Z,50.77
2022-09-17T08:34:19.849Z,49.64
2022-09-17T08:36:48.558Z,49.25
2022-09-17T08:39:18.364Z,50.41
2022-09-17T08:41:59.555Z,50.86
2022-09-17T08:44:33.526Z,50.46
2022-09-17T08:47:06.629Z,49.78
2022-09-17T08:49:37.965Z,49.84
2022-09-17T08:52:37.011Z,48.43
2022-09-17T08:55:19.009Z,43.03
2022-09-17T08:57:55.860Z,37.71
2022-09-17T09:00:25.858Z,37.23
2022-09-17T09:03:23.864Z,38.61
2022-09-17T09:05:54.116Z,32.82
2022-09-17T09:08:37.114Z,33.34
2022-09-17T09:11:26.473Z,30.30
2022-09-17T09:14:27.216Z,28.98
2022-09-17T09:16:59.209Z,29.99
2022-09-17T09:19:31.432Z,32.72
2022-09-17T09:22:05.296Z,35.76
2022-09-17T09:24:42.744Z,38.26
2022-09-17T09:27:19.228Z,39.78
2022-09-17T09:30:04.438Z,40.54
2022-09-17T09:32:51.044Z,42.06
2022-09-17T09:35:25.735Z,35.14
2022-09-17T09:47:38.441Z,23.48
2022-09-17T09:50:25.273Z,23.80
2022-09-17T09:53:12.684Z,26.54
2022-09-17T09:56:01.927Z,29.37
2022-09-17T09:58:35.639Z,26.74
2022-09-17T10:01:04.435Z,27.77
2022-09-17T10:03:42.359Z,29.20
2022-09-17T10:06:13.046Z,26.05
2022-09-17T10:09:22.202Z,25.79
2022-09-17T10:12:17.714Z,27.88
2022-09-17T10:14:49.759Z,29.79
2022-09-17T10:20:25.814Z,33.74
2022-09-17T10:26:06.024Z,38.77
2022-09-17T10:28:46.650Z,41.66
2022-09-17T10:31:15.245Z,42.16
2022-09-17T10:33:53.649Z,36.83
2022-09-17T10:39:36.508Z,37.35
2022-09-17T10:42:06.277Z,36.13
2022-09-17T10:44:35.682Z,39.64
2022-09-17T10:47:09.048Z,37.23
2022-09-17T10:49:43.977Z,36.72
2022-09-17T10:52:15.730Z,31.65
2022-09-17T10:55:20.675Z,29.53
2022-09-17T10:58:02.975Z,28.93
2022-09-17T11:00:39.742Z,31.53
2022-09-17T11:09:34.263Z,24.45
2022-09-17T11:12:29.223Z,22.92
2022-09-17T11:15:04.316Z,19.25
2022-09-17T11:17:55.293Z,17.72
2022-09-17T11:20:41.730Z,16.23
2022-09-17T11:23:37.850Z,17.33
2022-09-17T11:26:19.864Z,20.19
2022-09-17T11:29:02.309Z,24.51
2022-09-17T11:38:02.173Z,28.63
2022-09-17T11:40:40.192Z,30.40
2022-09-17T11:43:23.948Z,29.40
2022-09-17T11:46:10.762Z,30.94
2022-09-17T11:51:52.831Z,33.06
2022-09-17T11:54:28.475Z,29.94
2022-09-17T11:57:06.406Z,29.41
2022-09-17T11:59:47.290Z,31.76
2022-09-17T12:02:23.504Z,32.86
2022-09-17T12:05:03.110Z,33.59
2022-09-17T14:00:18.906Z,55.89
2022-09-17T14:02:48.779Z,56.75
2022-09-17T14:05:38.601Z,57.23
2022-09-17T14:08:31.087Z,57.58
2022-09-17T14:11:23.975Z,57.87
2022-09-17T14:17:00.658Z,57.98
2022-09-17T14:22:42.037Z,57.60
2022-09-17T14:25:17.736Z,59.14
2022-09-17T14:27:56.011Z,59.61
2022-09-17T14:30:25.544Z,58.90
2022-09-17T14:33:00.470Z,58.46
2022-09-17T14:35:35.027Z,58.62
2022-09-17T14:38:12.868Z,58.78
2022-09-17T14:40:47.765Z,58.98
2022-09-17T14:43:21.032Z,58.84
2022-09-17T14:45:52.939Z,58.93
2022-09-17T14:48:32.627Z,60.51
2022-09-17T14:51:30.210Z,59.54
2022-09-17T14:54:30.301Z,60.36
2022-09-17T14:57:03.968Z,61.20
2022-09-17T14:59:47.024Z,61.17
2022-09-17T15:02:25.103Z,62.79
2022-09-17T15:04:53.326Z,63.01
2022-09-17T15:07:22.680Z,63.26
2022-09-17T15:09:55.195Z,63.31
2022-09-17T15:12:29.355Z,62.64
2022-09-17T15:14:58.786Z,63.04
2022-09-17T15:17:26.805Z,63.86
2022-09-17T15:19:59.453Z,62.92
2022-09-17T15:22:31.119Z,63.91
2022-09-17T15:25:05.416Z,64.18
2022-09-17T15:27:36.970Z,63.91
2022-09-17T15:30:07.615Z,64.22
2022-09-17T15:37:35.669Z,62.25
2022-09-17T15:40:14.485Z,62.27
2022-09-17T15:42:51.834Z,61.39
2022-09-17T15:48:11.012Z,61.70
2022-09-17T15:50:59.682Z,62.57
2022-09-17T15:53:43.418Z,62.70
2022-09-17T15:56:25.537Z,62.70
2022-09-17T15:58:59.422Z,63.46
2022-09-17T16:01:55.955Z,63.38
2022-09-17T16:04:32.513Z,63.84
2022-09-17T16:07:28.409Z,64.01
2022-09-17T16:16:30.650Z,65.11
2022-09-17T16:19:00.355Z,65.25
2022-09-17T16:24:16.863Z,66.07
2022-09-17T16:27:23.785Z,66.68
2022-09-17T16:29:54.160Z,67.21
2022-09-17T16:32:22.357Z,67.20
2022-09-17T16:34:53.283Z,67.32
2022-09-17T16:37:21.556Z,67.40
2022-09-17T16:39:49.999Z,67.13
2022-09-17T16:45:13.439Z,66.53
2022-09-17T16:47:43.129Z,66.61
2022-09-17T16:50:14.757Z,67.46
2022-09-17T16:52:43.568Z,67.41
2022-09-17T16:55:13.269Z,67.87
2022-09-17T16:57:41.336Z,68.09
2022-09-17T17:00:14.298Z,68.30
2022-09-17T17:09:15.629Z,69.13
2022-09-17T17:11:44.266Z,69.69
2022-09-17T17:14:14.954Z,69.68
2022-09-17T17:16:43.734Z,70.34
2022-09-17T17:19:11.963Z,70.20
2022-09-17T17:21:42.973Z,70.41
2022-09-17T17:24:16.222Z,69.97
2022-09-17T17:26:44.537Z,70.44
2022-09-17T17:29:13.454Z,70.62
2022-09-17T17:31:41.682Z,70.70
2022-09-17T17:34:10.675Z,70.84
2022-09-17T17:36:38.553Z,70.71
2022-09-17T17:39:15.411Z,71.08
2022-09-17T17:41:49.670Z,70.92
2022-09-17T17:44:19.681Z,70.59
2022-09-17T18:02:25.101Z,71.40
2022-09-17T18:04:54.799Z,71.98
2022-09-17T18:07:23.087Z,71.97
2022-09-17T18:09:51.170Z,71.76
2022-09-17T18:12:21.745Z,71.73
2022-09-17T18:14:55.096Z,71.81
2022-09-17T18:42:15.882Z,72.42
2022-09-17T18:44:48.069Z,72.16
2022-09-17T18:47:17.558Z,72.69
2022-09-17T18:49:46.224Z,72.24
2022-09-17T18:52:14.139Z,72.44
2022-09-17T18:54:48.967Z,72.56
2022-09-17T18:57:17.643Z,72.43
2022-09-17T18:59:48.801Z,72.19
2022-09-17T19:02:17.210Z,72.34
2022-09-17T19:16:38.577Z,72.94
2022-09-17T19:19:07.654Z,72.24
2022-09-17T19:21:35.865Z,72.47
2022-09-17T19:24:04.608Z,72.46
2022-09-17T19:26:37.310Z,72.50
2022-09-17T19:29:10.068Z,72.78
2022-09-17T19:31:40.077Z,72.89
2022-09-17T19:34:09.034Z,72.95
2022-09-17T19:36:37.402Z,73.02
2022-09-17T19:39:06.255Z,72.85
2022-09-17T19:41:54.260Z,72.88
2022-09-17T19:44:23.695Z,73.04
2022-09-17T19:46:53.194Z,72.91
2022-09-17T19:49:24.642Z,73.00
2022-09-17T20:17:24.620Z,72.77
2022-09-17T20:19:52.918Z,73.05
2022-09-17T20:22:20.967Z,72.33
2022-09-17T20:24:51.124Z,72.39
2022-09-17T20:27:19.472Z,72.18
2022-09-17T20:29:47.625Z,71.91
2022-09-17T20:32:16.048Z,72.39
2022-09-17T20:44:09.803Z,71.88
2022-09-17T20:46:37.982Z,71.97
2022-09-17T20:49:05.998Z,71.89
2022-09-17T20:51:33.929Z,71.54
2022-09-17T20:54:02.790Z,71.57
2022-09-17T20:56:33.193Z,71.77
2022-09-17T20:59:15.593Z,71.26
2022-09-17T21:01:47.108Z,71.65
2022-09-17T21:52:42.345Z,70.93
2022-09-17T21:55:14.908Z,71.38
2022-09-17T21:57:45.929Z,71.37
2022-09-17T22:00:21.324Z,71.08
2022-09-17T22:02:56.653Z,71.13
2022-09-17T22:05:25.255Z,71.20
2022-09-17T22:07:58.849Z,70.78
2022-09-17T22:10:28.031Z,70.86
2022-09-17T22:12:59.732Z,70.85
2022-09-17T22:15:31.373Z,70.38
2022-09-17T22:18:04.211Z,70.73
2022-09-17T22:30:49.859Z,70.90
2022-09-17T22:33:39.170Z,70.72
2022-09-17T22:53:44.241Z,71.12
2022-09-17T22:56:16.955Z,70.85
2022-09-17T22:58:48.570Z,70.98
2022-09-17T23:01:22.094Z,70.64
2022-09-17T23:03:55.454Z,71.28
2022-09-17T23:09:32.054Z,71.40
2022-09-17T23:12:03.977Z,71.23
2022-09-17T23:14:33.356Z,71.50
2022-09-17T23:17:02.592Z,71.27
2022-09-17T23:19:31.465Z,71.16
2022-09-17T23:22:00.420Z,71.54
2022-09-17T23:24:37.861Z,71.36
2022-09-17T23:27:09.116Z,71.27
2022-09-17T23:29:38.170Z,71.57
2022-09-17T23:32:10.100Z,71.51
2022-09-17T23:34:59.108Z,71.66
2022-09-17T23:37:31.407Z,71.67
2022-09-17T23:45:44.882Z,71.43
2022-09-17T23:58:14.844Z,71.50
